sensor_id;sensor_type;location;lat;lon;timestamp;pressure;altitude;pressure_sealevel;temperature;humidity
70445;BME280;57902;49.638;11.070;2022-09-09T00:04:37;97951.03;;;14.29;79.86
70445;BME280;57902;49.638;11.070;2022-09-09T00:07:18;97957.03;;;14.29;79.90
70445;BME280;57902;49.638;11.070;2022-09-09T00:10:00;97952.56;;;14.33;79.29
70445;BME280;57902;49.638;11.070;2022-09-09T00:15:29;97956.88;;;14.32;80.27
70445;BME280;57902;49.638;11.070;2022-09-09T00:20:43;97945.69;;;14.32;80.26
70445;BME280;57902;49.638;11.070;2022-09-09T00:23:24;97944.16;;;14.28;80.39
70445;BME280;57902;49.638;11.070;2022-09-09T00:25:59;97941.72;;;14.25;80.77
70445;BME280;57902;49.638;11.070;2022-09-09T00:28:30;97934.09;;;14.22;80.71
70445;BME280;57902;49.638;11.070;2022-09-09T00:31:11;97935.09;;;14.19;80.80
70445;BME280;57902;49.638;11.070;2022-09-09T00:33:38;97939.13;;;14.25;80.41
70445;BME280;57902;49.638;11.070;2022-09-09T00:36:12;97935.47;;;14.29;81.03
70445;BME280;57902;49.638;11.070;2022-09-09T00:38:51;97942.25;;;14.31;81.22
70445;BME280;57902;49.638;11.070;2022-09-09T00:46:50;97939.03;;;14.44;80.54
70445;BME280;57902;49.638;11.070;2022-09-09T00:57:23;97939.53;;;14.50;80.05
70445;BME280;57902;49.638;11.070;2022-09-09T01:05:20;97945.38;;;14.38;80.62
70445;BME280;57902;49.638;11.070;2022-09-09T01:07:50;97949.56;;;14.41;80.36
70445;BME280;57902;49.638;11.070;2022-09-09T01:10:50;97940.50;;;14.32;80.82
70445;BME280;57902;49.638;11.070;2022-09-09T01:13:28;97945.75;;;14.30;80.74
70445;BME280;57902;49.638;11.070;2022-09-09T01:16:02;97937.84;;;14.33;80.08
70445;BME280;57902;49.638;11.070;2022-09-09T01:19:15;97940.66;;;14.29;81.11
70445;BME280;57902;49.638;11.070;2022-09-09T01:51:53;97942.38;;;14.46;80.18
70445;BME280;57902;49.638;11.070;2022-09-09T01:54:21;97943.84;;;14.51;79.82
70445;BME280;57902;49.638;11.070;2022-09-09T02:05:36;97938.06;;;14.64;79.20
70445;BME280;57902;49.638;11.070;2022-09-09T02:08:25;97938.81;;;14.66;78.80
70445;BME280;57902;49.638;11.070;2022-09-09T02:11:03;97927.44;;;14.68;78.62
70445;BME280;57902;49.638;11.070;2022-09-09T02:13:35;97929.63;;;14.76;77.72
70445;BME280;57902;49.638;11.070;2022-09-09T02:16:26;97918.09;;;14.82;77.40
70445;BME280;57902;49.638;11.070;2022-09-09T02:19:01;97917.94;;;14.85;77.18
70445;BME280;57902;49.638;11.070;2022-09-09T02:21:30;97922.50;;;14.80;77.69
70445;BME280;57902;49.638;11.070;2022-09-09T02:23:59;97931.41;;;14.76;78.34
70445;BME280;57902;49.638;11.070;2022-09-09T02:26:26;97928.81;;;14.76;78.06
70445;BME280;57902;49.638;11.070;2022-09-09T02:28:56;97934.06;;;14.74;79.18
70445;BME280;57902;49.638;11.070;2022-09-09T02:31:57;97927.78;;;14.78;78.18
70445;BME280;57902;49.638;11.070;2022-09-09T02:38:10;97928.97;;;14.88;77.76
70445;BME280;57902;49.638;11.070;2022-09-09T02:41:12;97923.63;;;14.92;77.98
70445;BME280;57902;49.638;11.070;2022-09-09T02:43:42;97929.50;;;14.95;77.57
70445;BME280;57902;49.638;11.070;2022-09-09T02:46:32;97937.19;;;14.97;77.76
70445;BME280;57902;49.638;11.070;2022-09-09T02:49:40;97931.00;;;14.99;77.97
70445;BME280;57902;49.638;11.070;2022-09-09T02:52:14;97930.06;;;15.00;78.04
70445;BME280;57902;49.638;11.070;2022-09-09T02:54:44;97924.81;;;15.02;77.85
70445;BME280;57902;49.638;11.070;2022-09-09T02:57:26;97927.19;;;15.07;77.78
70445;BME280;57902;49.638;11.070;2022-09-09T02:59:56;97929.53;;;15.11;76.85
70445;BME280;57902;49.638;11.070;2022-09-09T03:02:23;97928.00;;;15.07;78.24
70445;BME280;57902;49.638;11.070;2022-09-09T03:04:50;97929.69;;;15.08;78.03
70445;BME280;57902;49.638;11.070;2022-09-09T03:07:18;97933.03;;;15.10;77.73
70445;BME280;57902;49.638;11.070;2022-09-09T03:09:45;97919.72;;;15.16;77.05
70445;BME280;57902;49.638;11.070;2022-09-09T03:12:12;97923.41;;;15.12;77.58
70445;BME280;57902;49.638;11.070;2022-09-09T03:14:38;97925.06;;;15.13;77.00
70445;BME280;57902;49.638;11.070;2022-09-09T03:17:05;97920.81;;;15.12;76.93
70445;BME280;57902;49.638;11.070;2022-09-09T03:19:31;97917.97;;;15.17;77.25
70445;BME280;57902;49.638;11.070;2022-09-09T03:21:58;97915.47;;;15.15;77.06
70445;BME280;57902;49.638;11.070;2022-09-09T03:24:25;97920.81;;;15.12;77.32
70445;BME280;57902;49.638;11.070;2022-09-09T03:26:51;97918.22;;;15.12;76.53
70445;BME280;57902;49.638;11.070;2022-09-09T03:29:18;97926.00;;;15.12;76.63
70445;BME280;57902;49.638;11.070;2022-09-09T03:31:44;97917.88;;;15.02;77.49
70445;BME280;57902;49.638;11.070;2022-09-09T03:34:11;97921.47;;;15.00;77.10
70445;BME280;57902;49.638;11.070;2022-09-09T03:36:39;97914.59;;;14.99;77.69
70445;BME280;57902;49.638;11.070;2022-09-09T03:39:07;97902.63;;;14.96;77.64
70445;BME280;57902;49.638;11.070;2022-09-09T03:41:33;97912.06;;;14.97;77.00
70445;BME280;57902;49.638;11.070;2022-09-09T03:44:00;97906.88;;;14.97;76.81
70445;BME280;57902;49.638;11.070;2022-09-09T03:46:26;97918.38;;;14.93;77.53
70445;BME280;57902;49.638;11.070;2022-09-09T03:48:53;97914.09;;;14.92;77.58
70445;BME280;57902;49.638;11.070;2022-09-09T03:51:19;97927.97;;;14.91;78.27
70445;BME280;57902;49.638;11.070;2022-09-09T03:53:46;97929.50;;;14.95;77.46
70445;BME280;57902;49.638;11.070;2022-09-09T03:56:13;97920.72;;;14.98;77.02
70445;BME280;57902;49.638;11.070;2022-09-09T03:58:39;97913.50;;;15.03;76.55
70445;BME280;57902;49.638;11.070;2022-09-09T04:01:12;97917.25;;;14.97;77.19
70445;BME280;57902;49.638;11.070;2022-09-09T04:03:44;97926.16;;;14.93;77.76
70445;BME280;57902;49.638;11.070;2022-09-09T04:06:13;97922.69;;;14.93;77.68
70445;BME280;57902;49.638;11.070;2022-09-09T04:08:41;97911.75;;;14.87;77.67
70445;BME280;57902;49.638;11.070;2022-09-09T04:11:07;97909.16;;;14.87;77.57
70445;BME280;57902;49.638;11.070;2022-09-09T04:13:35;97906.47;;;14.89;77.19
70445;BME280;57902;49.638;11.070;2022-09-09T04:16:04;97908.03;;;14.92;76.93
70445;BME280;57902;49.638;11.070;2022-09-09T04:18:31;97915.25;;;14.86;77.26
70445;BME280;57902;49.638;11.070;2022-09-09T04:20:58;97913.22;;;14.76;78.17
70445;BME280;57902;49.638;11.070;2022-09-09T04:23:26;97910.84;;;14.71;79.23
70445;BME280;57902;49.638;11.070;2022-09-09T04:25:55;97914.38;;;14.70;78.88
70445;BME280;57902;49.638;11.070;2022-09-09T04:28:25;97911.00;;;14.68;79.48
70445;BME280;57902;49.638;11.070;2022-09-09T04:30:51;97922.34;;;14.67;79.30
70445;BME280;57902;49.638;11.070;2022-09-09T04:33:18;97930.03;;;14.68;79.32
70445;BME280;57902;49.638;11.070;2022-09-09T04:35:47;97923.25;;;14.66;80.60
70445;BME280;57902;49.638;11.070;2022-09-09T04:38:14;97922.34;;;14.67;80.56
70445;BME280;57902;49.638;11.070;2022-09-09T04:40:43;97924.53;;;14.75;78.71
70445;BME280;57902;49.638;11.070;2022-09-09T04:43:09;97925.25;;;14.77;78.72
70445;BME280;57902;49.638;11.070;2022-09-09T04:45:40;97924.44;;;14.76;78.56
70445;BME280;57902;49.638;11.070;2022-09-09T04:48:08;97915.91;;;14.74;79.17
70445;BME280;57902;49.638;11.070;2022-09-09T04:50:35;97921.09;;;14.74;78.81
70445;BME280;57902;49.638;11.070;2022-09-09T04:53:05;97925.03;;;14.81;78.22
70445;BME280;57902;49.638;11.070;2022-09-09T04:55:32;97924.28;;;14.79;78.55
70445;BME280;57902;49.638;11.070;2022-09-09T04:58:07;97917.47;;;14.77;78.37
70445;BME280;57902;49.638;11.070;2022-09-09T05:00:34;97923.28;;;14.82;78.21
70445;BME280;57902;49.638;11.070;2022-09-09T05:03:02;97924.88;;;14.84;78.56
70445;BME280;57902;49.638;11.070;2022-09-09T05:05:30;97936.34;;;14.80;78.98
70445;BME280;57902;49.638;11.070;2022-09-09T05:08:04;97941.78;;;14.76;79.05
70445;BME280;57902;49.638;11.070;2022-09-09T05:10:31;97946.03;;;14.77;79.19
70445;BME280;57902;49.638;11.070;2022-09-09T05:12:58;97943.34;;;14.78;78.83
70445;BME280;57902;49.638;11.070;2022-09-09T05:15:25;97950.75;;;14.86;78.19
70445;BME280;57902;49.638;11.070;2022-09-09T05:17:51;97947.47;;;14.82;79.09
70445;BME280;57902;49.638;11.070;2022-09-09T05:20:19;97954.41;;;14.82;79.78
70445;BME280;57902;49.638;11.070;2022-09-09T05:22:46;97963.94;;;14.81;79.45
70445;BME280;57902;49.638;11.070;2022-09-09T05:25:12;97968.75;;;14.89;78.97
70445;BME280;57902;49.638;11.070;2022-09-09T05:27:38;97965.13;;;14.92;79.02
70445;BME280;57902;49.638;11.070;2022-09-09T05:30:05;97969.41;;;14.93;78.29
70445;BME280;57902;49.638;11.070;2022-09-09T05:32:32;97965.59;;;15.00;78.26
70445;BME280;57902;49.638;11.070;2022-09-09T05:34:59;97968.72;;;15.07;77.88
70445;BME280;57902;49.638;11.070;2022-09-09T05:37:25;97959.91;;;15.09;78.61
70445;BME280;57902;49.638;11.070;2022-09-09T05:39:52;97960.78;;;15.26;77.58
70445;BME280;57902;49.638;11.070;2022-09-09T05:42:19;97958.41;;;15.37;77.18
70445;BME280;57902;49.638;11.070;2022-09-09T05:44:46;97959.84;;;15.43;76.97
70445;BME280;57902;49.638;11.070;2022-09-09T05:47:12;97960.19;;;15.52;76.43
70445;BME280;57902;49.638;11.070;2022-09-09T05:49:39;97966.22;;;15.53;76.29
70445;BME280;57902;49.638;11.070;2022-09-09T05:52:06;97966.63;;;15.61;75.50
70445;BME280;57902;49.638;11.070;2022-09-09T05:54:32;97970.91;;;15.62;76.11
70445;BME280;57902;49.638;11.070;2022-09-09T05:56:59;97975.63;;;15.87;75.24
70445;BME280;57902;49.638;11.070;2022-09-09T05:59:25;97979.81;;;16.20;74.85
70445;BME280;57902;49.638;11.070;2022-09-09T06:01:52;97982.97;;;16.41;72.89
70445;BME280;57902;49.638;11.070;2022-09-09T06:04:19;97978.53;;;16.72;72.05
70445;BME280;57902;49.638;11.070;2022-09-09T06:06:48;97982.28;;;16.83;70.94
70445;BME280;57902;49.638;11.070;2022-09-09T06:09:15;97981.41;;;16.82;70.11
70445;BME280;57902;49.638;11.070;2022-09-09T06:11:41;97978.81;;;16.82;70.33
70445;BME280;57902;49.638;11.070;2022-09-09T06:14:08;97971.00;;;16.82;69.27
70445;BME280;57902;49.638;11.070;2022-09-09T06:16:35;97979.88;;;16.94;68.85
70445;BME280;57902;49.638;11.070;2022-09-09T06:19:04;97977.44;;;16.91;69.20
70445;BME280;57902;49.638;11.070;2022-09-09T06:21:32;97978.06;;;16.80;69.18
70445;BME280;57902;49.638;11.070;2022-09-09T06:24:00;97981.06;;;16.74;69.80
70445;BME280;57902;49.638;11.070;2022-09-09T06:26:32;97975.38;;;16.67;70.55
70445;BME280;57902;49.638;11.070;2022-09-09T06:28:59;97977.31;;;16.64;69.66
70445;BME280;57902;49.638;11.070;2022-09-09T06:31:27;97976.09;;;16.55;71.21
70445;BME280;57902;49.638;11.070;2022-09-09T06:33:58;97980.94;;;16.61;70.78
70445;BME280;57902;49.638;11.070;2022-09-09T06:36:29;97975.84;;;16.74;70.52
70445;BME280;57902;49.638;11.070;2022-09-09T06:38:57;97981.56;;;17.09;70.07
70445;BME280;57902;49.638;11.070;2022-09-09T06:41:26;97969.22;;;17.82;68.10
70445;BME280;57902;49.638;11.070;2022-09-09T06:43:53;97974.19;;;18.40;65.41
70445;BME280;57902;49.638;11.070;2022-09-09T06:46:26;97978.72;;;18.89;64.06
70445;BME280;57902;49.638;11.070;2022-09-09T06:48:57;97980.66;;;19.50;60.59
70445;BME280;57902;49.638;11.070;2022-09-09T06:51:28;97979.72;;;19.75;60.73
70445;BME280;57902;49.638;11.070;2022-09-09T06:53:57;97987.44;;;19.76;58.97
70445;BME280;57902;49.638;11.070;2022-09-09T06:56:33;97984.97;;;19.62;60.14
70445;BME280;57902;49.638;11.070;2022-09-09T06:59:01;97988.94;;;19.68;60.03
70445;BME280;57902;49.638;11.070;2022-09-09T07:01:32;97981.13;;;19.92;60.00
70445;BME280;57902;49.638;11.070;2022-09-09T07:03:59;97987.56;;;19.99;58.62
70445;BME280;57902;49.638;11.070;2022-09-09T07:06:27;97991.25;;;20.21;56.64
70445;BME280;57902;49.638;11.070;2022-09-09T07:08:57;97993.13;;;20.19;57.03
70445;BME280;57902;49.638;11.070;2022-09-09T07:11:26;97995.44;;;20.23;57.51
70445;BME280;57902;49.638;11.070;2022-09-09T07:13:53;97996.53;;;20.32;56.84
70445;BME280;57902;49.638;11.070;2022-09-09T07:16:21;97992.78;;;20.59;56.23
70445;BME280;57902;49.638;11.070;2022-09-09T07:18:54;98002.41;;;21.28;53.86
70445;BME280;57902;49.638;11.070;2022-09-09T07:21:28;98005.38;;;21.69;52.03
70445;BME280;57902;49.638;11.070;2022-09-09T07:23:55;98009.78;;;21.57;52.30
70445;BME280;57902;49.638;11.070;2022-09-09T07:26:25;97999.72;;;22.17;51.81
70445;BME280;57902;49.638;11.070;2022-09-09T07:28:52;98006.03;;;23.10;49.91
70445;BME280;57902;49.638;11.070;2022-09-09T07:31:22;98006.44;;;23.87;47.21
70445;BME280;57902;49.638;11.070;2022-09-09T07:33:50;98008.50;;;24.52;44.36
70445;BME280;57902;49.638;11.070;2022-09-09T07:36:26;98014.13;;;25.06;43.70
70445;BME280;57902;49.638;11.070;2022-09-09T07:39:06;98015.38;;;25.02;44.42
70445;BME280;57902;49.638;11.070;2022-09-09T07:41:36;98014.59;;;25.29;42.50
70445;BME280;57902;49.638;11.070;2022-09-09T07:47:15;98012.53;;;26.06;42.13
70445;BME280;57902;49.638;11.070;2022-09-09T07:49:44;98014.56;;;26.30;41.76
70445;BME280;57902;49.638;11.070;2022-09-09T07:52:12;98017.72;;;26.96;38.62
70445;BME280;57902;49.638;11.070;2022-09-09T07:54:42;98012.47;;;26.60;38.74
70445;BME280;57902;49.638;11.070;2022-09-09T07:57:08;98014.44;;;26.14;40.16
70445;BME280;57902;49.638;11.070;2022-09-09T07:59:34;98022.25;;;25.60;41.12
70445;BME280;57902;49.638;11.070;2022-09-09T08:02:01;98018.63;;;25.23;42.87
70445;BME280;57902;49.638;11.070;2022-09-09T08:04:28;98023.50;;;24.71;43.38
70445;BME280;57902;49.638;11.070;2022-09-09T08:06:57;98013.97;;;24.11;44.49
70445;BME280;57902;49.638;11.070;2022-09-09T08:09:24;98016.19;;;23.65;45.86
70445;BME280;57902;49.638;11.070;2022-09-09T08:11:53;98018.22;;;22.90;48.59
70445;BME280;57902;49.638;11.070;2022-09-09T08:14:19;98021.66;;;22.60;49.28
70445;BME280;57902;49.638;11.070;2022-09-09T08:16:47;98018.59;;;22.43;49.68
70445;BME280;57902;49.638;11.070;2022-09-09T08:19:14;98022.00;;;22.34;50.19
70445;BME280;57902;49.638;11.070;2022-09-09T08:21:43;98024.50;;;22.35;51.98
70445;BME280;57902;49.638;11.070;2022-09-09T08:24:10;98022.28;;;22.73;48.97
70445;BME280;57902;49.638;11.070;2022-09-09T08:26:40;98021.81;;;23.10;49.67
70445;BME280;57902;49.638;11.070;2022-09-09T08:29:12;98019.38;;;23.59;46.79
70445;BME280;57902;49.638;11.070;2022-09-09T08:31:45;98026.13;;;24.12;45.20
70445;BME280;57902;49.638;11.070;2022-09-09T08:34:13;98025.56;;;24.87;43.03
70445;BME280;57902;49.638;11.070;2022-09-09T08:36:42;98026.69;;;25.31;42.28
70445;BME280;57902;49.638;11.070;2022-09-09T08:39:11;98024.88;;;25.88;40.37
70445;BME280;57902;49.638;11.070;2022-09-09T08:41:55;98022.66;;;26.29;39.83
70445;BME280;57902;49.638;11.070;2022-09-09T08:52:40;98026.56;;;27.39;37.82
70445;BME280;57902;49.638;11.070;2022-09-09T08:57:56;98021.41;;;27.38;37.66
70445;BME280;57902;49.638;11.070;2022-09-09T09:00:30;98025.03;;;27.71;38.75
70445;BME280;57902;49.638;11.070;2022-09-09T09:05:46;98020.94;;;27.93;36.25
70445;BME280;57902;49.638;11.070;2022-09-09T09:08:33;98016.22;;;28.30;37.03
70445;BME280;57902;49.638;11.070;2022-09-09T09:11:04;98014.41;;;28.47;35.14
70445;BME280;57902;49.638;11.070;2022-09-09T09:18:41;98017.53;;;28.51;35.13
70445;BME280;57902;49.638;11.070;2022-09-09T09:21:14;98017.72;;;28.66;34.72
70445;BME280;57902;49.638;11.070;2022-09-09T09:23:49;98013.38;;;28.56;34.72
70445;BME280;57902;49.638;11.070;2022-09-09T09:26:21;98016.56;;;28.35;35.49
70445;BME280;57902;49.638;11.070;2022-09-09T09:28:49;98014.50;;;28.04;35.46
70445;BME280;57902;49.638;11.070;2022-09-09T09:31:18;98012.16;;;27.93;37.34
70445;BME280;57902;49.638;11.070;2022-09-09T09:33:50;98010.81;;;27.81;37.11
70445;BME280;57902;49.638;11.070;2022-09-09T09:36:20;98003.44;;;27.50;36.32
70445;BME280;57902;49.638;11.070;2022-09-09T09:39:00;98005.53;;;26.77;37.57
70445;BME280;57902;49.638;11.070;2022-09-09T09:41:47;97998.50;;;25.78;38.85
70445;BME280;57902;49.638;11.070;2022-09-09T09:44:30;98001.63;;;25.08;40.25
70445;BME280;57902;49.638;11.070;2022-09-09T09:47:16;97994.13;;;25.03;40.04
70445;BME280;57902;49.638;11.070;2022-09-09T09:49:59;97993.88;;;24.96;40.97
70445;BME280;57902;49.638;11.070;2022-09-09T09:52:30;97994.69;;;25.07;40.75
70445;BME280;57902;49.638;11.070;2022-09-09T09:54:58;97995.50;;;25.07;40.88
70445;BME280;57902;49.638;11.070;2022-09-09T09:57:32;97981.31;;;25.18;40.58
70445;BME280;57902;49.638;11.070;2022-09-09T10:00:14;97981.56;;;25.35;39.78
70445;BME280;57902;49.638;11.070;2022-09-09T10:02:43;97982.81;;;25.21;39.79
70445;BME280;57902;49.638;11.070;2022-09-09T10:07:39;97983.94;;;24.90;41.14
70445;BME280;57902;49.638;11.070;2022-09-09T10:10:12;97987.53;;;24.89;41.76
70445;BME280;57902;49.638;11.070;2022-09-09T10:13:00;97986.59;;;24.71;40.50
70445;BME280;57902;49.638;11.070;2022-09-09T10:18:39;97983.16;;;24.41;42.43
70445;BME280;57902;49.638;11.070;2022-09-09T10:24:12;97975.09;;;24.62;41.41
70445;BME280;57902;49.638;11.070;2022-09-09T10:32:37;97961.75;;;24.83;39.74
70445;BME280;57902;49.638;11.070;2022-09-09T10:35:30;97966.31;;;24.81;39.88
70445;BME280;57902;49.638;11.070;2022-09-09T10:46:18;97954.22;;;24.88;40.67
70445;BME280;57902;49.638;11.070;2022-09-09T10:49:01;97941.91;;;25.17;39.10
70445;BME280;57902;49.638;11.070;2022-09-09T10:52:01;97951.31;;;25.19;39.00
70445;BME280;57902;49.638;11.070;2022-09-09T10:57:34;97935.75;;;24.88;39.44
70445;BME280;57902;49.638;11.070;2022-09-09T11:00:05;97937.25;;;25.01;39.64
70445;BME280;57902;49.638;11.070;2022-09-09T11:02:34;97936.38;;;25.10;39.47
70445;BME280;57902;49.638;11.070;2022-09-09T11:05:08;97943.88;;;25.05;39.39
70445;BME280;57902;49.638;11.070;2022-09-09T11:07:43;97941.63;;;24.82;40.62
70445;BME280;57902;49.638;11.070;2022-09-09T11:12:47;97947.63;;;24.74;40.75
70445;BME280;57902;49.638;11.070;2022-09-09T11:15:39;97955.16;;;24.97;41.07
70445;BME280;57902;49.638;11.070;2022-09-09T11:18:13;97951.16;;;25.30;39.60
70445;BME280;57902;49.638;11.070;2022-09-09T11:20:42;97950.50;;;25.46;38.39
70445;BME280;57902;49.638;11.070;2022-09-09T11:23:19;97939.50;;;25.51;38.62
70445;BME280;57902;49.638;11.070;2022-09-09T11:25:52;97938.84;;;25.67;38.91
70445;BME280;57902;49.638;11.070;2022-09-09T11:28:50;97932.00;;;25.56;38.95
70445;BME280;57902;49.638;11.070;2022-09-09T11:31:44;97936.66;;;25.62;38.99
70445;BME280;57902;49.638;11.070;2022-09-09T11:40:18;97923.88;;;26.04;38.24
70445;BME280;57902;49.638;11.070;2022-09-09T11:42:47;97918.31;;;26.15;38.62
70445;BME280;57902;49.638;11.070;2022-09-09T11:45:27;97917.84;;;26.37;35.70
70445;BME280;57902;49.638;11.070;2022-09-09T11:48:03;97908.22;;;26.28;36.00
70445;BME280;57902;49.638;11.070;2022-09-09T11:50:35;97898.97;;;26.32;35.61
70445;BME280;57902;49.638;11.070;2022-09-09T11:53:18;97896.91;;;26.18;34.87
70445;BME280;57902;49.638;11.070;2022-09-09T11:56:11;97905.56;;;26.10;36.09
70445;BME280;57902;49.638;11.070;2022-09-09T11:58:41;97904.13;;;26.16;33.75
70445;BME280;57902;49.638;11.070;2022-09-09T12:01:42;97902.03;;;26.01;34.87
70445;BME280;57902;49.638;11.070;2022-09-09T12:06:46;97914.63;;;25.90;34.35
70445;BME280;57902;49.638;11.070;2022-09-09T12:09:23;97916.59;;;25.70;34.03
70445;BME280;57902;49.638;11.070;2022-09-09T12:11:51;97912.59;;;26.01;34.00
70445;BME280;57902;49.638;11.070;2022-09-09T12:14:22;97910.19;;;26.08;34.47
70445;BME280;57902;49.638;11.070;2022-09-09T12:16:49;97901.66;;;25.96;35.00
70445;BME280;57902;49.638;11.070;2022-09-09T12:19:21;97900.31;;;25.56;34.66
70445;BME280;57902;49.638;11.070;2022-09-09T12:24:54;97905.19;;;25.23;35.54
70445;BME280;57902;49.638;11.070;2022-09-09T12:27:31;97900.91;;;25.22;35.67
70445;BME280;57902;49.638;11.070;2022-09-09T12:30:04;97896.16;;;25.26;35.49
70445;BME280;57902;49.638;11.070;2022-09-09T12:32:31;97886.50;;;25.17;35.07
70445;BME280;57902;49.638;11.070;2022-09-09T12:35:10;97889.28;;;25.15;35.98
70445;BME280;57902;49.638;11.070;2022-09-09T12:40:23;97879.53;;;24.97;35.67
70445;BME280;57902;49.638;11.070;2022-09-09T12:42:50;97883.66;;;25.00;35.45
70445;BME280;57902;49.638;11.070;2022-09-09T12:45:20;97890.34;;;25.22;35.28
70445;BME280;57902;49.638;11.070;2022-09-09T12:47:56;97915.47;;;25.26;35.34
70445;BME280;57902;49.638;11.070;2022-09-09T12:50:27;97921.13;;;25.04;36.44
70445;BME280;57902;49.638;11.070;2022-09-09T12:52:58;97929.31;;;24.53;38.16
70445;BME280;57902;49.638;11.070;2022-09-09T12:55:29;97932.59;;;24.08;38.70
70445;BME280;57902;49.638;11.070;2022-09-09T12:57:57;97938.47;;;23.51;39.80
70445;BME280;57902;49.638;11.070;2022-09-09T13:00:26;97950.50;;;23.03;41.68
70445;BME280;57902;49.638;11.070;2022-09-09T13:02:55;97955.59;;;22.74;42.06
70445;BME280;57902;49.638;11.070;2022-09-09T13:05:27;97971.84;;;22.37;49.84
70445;BME280;57902;49.638;11.070;2022-09-09T13:08:07;97979.56;;;21.85;52.15
70445;BME280;57902;49.638;11.070;2022-09-09T13:10:46;98000.00;;;21.36;54.92
70445;BME280;57902;49.638;11.070;2022-09-09T13:13:29;98005.22;;;20.79;58.96
70445;BME280;57902;49.638;11.070;2022-09-09T13:15:59;98000.78;;;20.33;60.74
70445;BME280;57902;49.638;11.070;2022-09-09T13:18:29;98003.50;;;19.96;65.18
70445;BME280;57902;49.638;11.070;2022-09-09T13:20:57;98007.16;;;19.56;64.80
70445;BME280;57902;49.638;11.070;2022-09-09T13:23:30;97995.94;;;19.30;67.51
70445;BME280;57902;49.638;11.070;2022-09-09T13:26:02;97984.88;;;19.14;68.96
70445;BME280;57902;49.638;11.070;2022-09-09T13:28:30;97983.53;;;18.95;69.16
70445;BME280;57902;49.638;11.070;2022-09-09T13:31:01;97970.56;;;18.81;70.26
70445;BME280;57902;49.638;11.070;2022-09-09T13:33:37;97962.31;;;18.74;72.55
70445;BME280;57902;49.638;11.070;2022-09-09T13:36:08;97949.91;;;18.65;77.94
70445;BME280;57902;49.638;11.070;2022-09-09T13:38:37;97941.75;;;18.69;75.06
70445;BME280;57902;49.638;11.070;2022-09-09T13:41:07;97934.72;;;19.09;77.52
70445;BME280;57902;49.638;11.070;2022-09-09T13:43:43;97933.84;;;19.34;75.96
70445;BME280;57902;49.638;11.070;2022-09-09T13:46:40;97931.91;;;19.49;70.20
70445;BME280;57902;49.638;11.070;2022-09-09T13:54:09;97916.06;;;19.63;68.71
70445;BME280;57902;49.638;11.070;2022-09-09T13:56:37;97913.66;;;19.60;71.01
70445;BME280;57902;49.638;11.070;2022-09-09T13:59:06;97912.25;;;19.67;69.04
70445;BME280;57902;49.638;11.070;2022-09-09T14:01:35;97906.03;;;19.57;68.76
70445;BME280;57902;49.638;11.070;2022-09-09T14:04:03;97907.69;;;19.58;69.97
70445;BME280;57902;49.638;11.070;2022-09-09T14:06:31;97907.69;;;19.58;68.60
70445;BME280;57902;49.638;11.070;2022-09-09T14:08:58;97913.34;;;19.65;70.76
70445;BME280;57902;49.638;11.070;2022-09-09T14:11:25;97907.69;;;19.58;71.73
70445;BME280;57902;49.638;11.070;2022-09-09T14:13:51;97904.50;;;19.54;69.88
70445;BME280;57902;49.638;11.070;2022-09-09T14:16:18;97904.38;;;19.56;69.76
70445;BME280;57902;49.638;11.070;2022-09-09T14:18:45;97902.94;;;19.52;68.34
70445;BME280;57902;49.638;11.070;2022-09-09T14:21:12;97901.91;;;19.66;70.86
70445;BME280;57902;49.638;11.070;2022-09-09T14:23:38;97909.22;;;19.73;71.75
70445;BME280;57902;49.638;11.070;2022-09-09T14:26:05;97903.75;;;19.76;71.63
70445;BME280;57902;49.638;11.070;2022-09-09T14:28:32;97907.31;;;19.75;69.52
70445;BME280;57902;49.638;11.070;2022-09-09T14:31:19;97908.44;;;19.84;71.11
70445;BME280;57902;49.638;11.070;2022-09-09T14:33:47;97905.84;;;19.84;68.79
70445;BME280;57902;49.638;11.070;2022-09-09T14:36:13;97905.47;;;19.89;70.36
70445;BME280;57902;49.638;11.070;2022-09-09T14:38:41;97901.97;;;20.01;70.76
70445;BME280;57902;49.638;11.070;2022-09-09T14:41:10;97901.16;;;20.12;67.80
70445;BME280;57902;49.638;11.070;2022-09-09T14:43:38;97901.31;;;20.22;66.43
70445;BME280;57902;49.638;11.070;2022-09-09T14:46:09;97893.22;;;20.25;65.77
70445;BME280;57902;49.638;11.070;2022-09-09T14:48:36;97892.53;;;20.34;65.28
70445;BME280;57902;49.638;11.070;2022-09-09T14:51:12;97889.78;;;20.36;65.50
70445;BME280;57902;49.638;11.070;2022-09-09T14:53:39;97894.66;;;20.40;63.90
70445;BME280;57902;49.638;11.070;2022-09-09T14:56:17;97887.19;;;20.47;61.62
70445;BME280;57902;49.638;11.070;2022-09-09T14:58:44;97891.47;;;20.37;65.00
70445;BME280;57902;49.638;11.070;2022-09-09T15:01:13;97890.41;;;20.39;64.04
70445;BME280;57902;49.638;11.070;2022-09-09T15:03:41;97898.72;;;20.44;63.15
70445;BME280;57902;49.638;11.070;2022-09-09T15:06:08;97906.13;;;20.39;66.39
70445;BME280;57902;49.638;11.070;2022-09-09T15:08:36;97902.16;;;20.34;66.56
70445;BME280;57902;49.638;11.070;2022-09-09T15:11:08;97913.69;;;20.31;67.44
70445;BME280;57902;49.638;11.070;2022-09-09T15:13:37;97921.91;;;20.26;67.34
70445;BME280;57902;49.638;11.070;2022-09-09T15:16:12;97922.13;;;20.23;67.74
70445;BME280;57902;49.638;11.070;2022-09-09T15:18:39;97918.66;;;20.23;67.10
70445;BME280;57902;49.638;11.070;2022-09-09T15:21:14;97912.81;;;20.08;68.77
70445;BME280;57902;49.638;11.070;2022-09-09T15:23:42;97911.25;;;20.05;67.19
70445;BME280;57902;49.638;11.070;2022-09-09T15:26:09;97910.53;;;20.03;67.04
70445;BME280;57902;49.638;11.070;2022-09-09T15:28:37;97903.84;;;19.99;67.18
70445;BME280;57902;49.638;11.070;2022-09-09T15:31:06;97910.13;;;19.97;66.62
70445;BME280;57902;49.638;11.070;2022-09-09T15:33:33;97900.41;;;19.99;65.35